Omiya, Japan
Current Conditions -  °F | °C
As of 11:58 AM on Tuesday 27 Jan 2015 (Local Time) from RJTY Reporting Station
Clear Clear  
Wind Chill: 57°   Ceiling: Unl
Heat Index: 57°   Visibility: 10mi
Dew Point: 45°   Wind: 2mph
Humidity: 63%   Direction: 140°SE
Pressure: 29.77"   Gusts: NA
Location:  35.9°N, 139.63°E
Report Text: RJTY 270258Z AUTO 14002KT 10SM CLR 14/07 A2977 RMK AO2 SLP086 T01410072 57027
Loading
Personal Weather Stations






























Interactive Weather Map New forecast layout! Learn more

10-Day Weather Forecast

Advertisements
Track Severe Weather on mobile